createdAt,value
2019-01-17T00:00:23.242Z,25.97
2019-01-17T00:03:31.982Z,26.13
2019-01-17T00:06:19.692Z,25.93
2019-01-17T00:09:07.772Z,24.07
2019-01-17T00:11:47.456Z,24.27
2019-01-17T00:14:30.334Z,24.17
2019-01-17T00:17:31.418Z,24.00
2019-01-17T00:20:19.023Z,22.50
2019-01-17T00:23:05.807Z,23.93
2019-01-17T00:25:44.143Z,22.90
2019-01-17T00:28:27.463Z,24.67
2019-01-17T00:31:16.186Z,22.40
2019-01-17T00:34:11.142Z,21.30
2019-01-17T00:36:55.790Z,21.93
2019-01-17T00:39:43.431Z,21.50
2019-01-17T00:42:50.354Z,21.90
2019-01-17T00:45:57.274Z,20.87
2019-01-17T00:48:54.645Z,21.07
2019-01-17T00:51:42.107Z,21.00
2019-01-17T00:54:20.694Z,19.83
2019-01-17T00:57:20.519Z,22.80
2019-01-17T01:00:12.447Z,21.50
2019-01-17T01:02:55.881Z,22.77
2019-01-17T01:05:53.602Z,23.40
2019-01-17T01:08:43.574Z,22.43
2019-01-17T01:11:31.284Z,22.37
2019-01-17T01:14:11.728Z,23.10
2019-01-17T01:17:05.306Z,24.00
2019-01-17T01:20:12.638Z,22.67
2019-01-17T01:23:00.515Z,22.00
2019-01-17T01:25:51.647Z,21.00
2019-01-17T01:28:58.807Z,21.23
2019-01-17T01:31:39.919Z,19.17
2019-01-17T01:34:37.690Z,17.93
2019-01-17T01:37:28.906Z,19.87
2019-01-17T01:40:09.047Z,19.90
2019-01-17T01:43:04.132Z,20.50
2019-01-17T01:46:02.191Z,17.07
2019-01-17T01:48:50.019Z,18.33
2019-01-17T01:51:28.418Z,17.80
2019-01-17T01:53:58.633Z,16.67
2019-01-17T01:56:28.259Z,12.43
2019-01-17T01:58:58.154Z,16.10
2019-01-17T02:01:27.780Z,15.63
2019-01-17T02:03:57.403Z,14.27
2019-01-17T02:06:27.271Z,16.70
2019-01-17T02:08:56.974Z,15.03
2019-01-17T02:11:26.675Z,11.77
2019-01-17T02:13:56.747Z,13.83
2019-01-17T02:16:26.371Z,15.20
2019-01-17T02:18:56.551Z,14.60
2019-01-17T02:21:26.948Z,15.37
2019-01-17T02:23:56.576Z,15.73
2019-01-17T02:26:26.510Z,14.53
2019-01-17T02:28:56.229Z,15.87
2019-01-17T02:31:25.841Z,15.10
2019-01-17T02:33:56.059Z,14.20
2019-01-17T02:36:25.732Z,13.57
2019-01-17T02:38:55.678Z,12.27
2019-01-17T02:41:25.364Z,13.23
2019-01-17T02:43:54.976Z,13.03
2019-01-17T02:46:24.665Z,12.20
2019-01-17T02:48:54.611Z,13.27
2019-01-17T02:51:25.368Z,13.40
2019-01-17T02:53:54.993Z,13.90
2019-01-17T02:56:24.681Z,12.17
2019-01-17T02:58:54.376Z,12.37
2019-01-17T03:01:24.522Z,11.40
2019-01-17T03:03:54.150Z,11.40
2019-01-17T03:06:23.866Z,10.23
2019-01-17T03:08:53.497Z,11.63
2019-01-17T03:11:24.465Z,10.97
2019-01-17T03:13:54.178Z,10.03
2019-01-17T03:16:23.866Z,9.33
2019-01-17T03:18:53.561Z,9.77
2019-01-17T03:21:24.297Z,8.83
2019-01-17T03:23:53.982Z,9.60
2019-01-17T03:26:23.872Z,8.80
2019-01-17T03:28:53.556Z,8.53
2019-01-17T03:31:23.423Z,8.53
2019-01-17T03:33:53.037Z,8.20
2019-01-17T03:36:22.732Z,8.30
2019-01-17T03:38:52.349Z,7.97
2019-01-17T03:41:22.079Z,7.67
2019-01-17T03:43:51.793Z,7.57
2019-01-17T03:46:21.405Z,6.77
2019-01-17T03:48:51.084Z,7.83
2019-01-17T03:51:20.715Z,7.33
2019-01-17T03:53:50.327Z,7.20
2019-01-17T03:56:21.728Z,6.60
2019-01-17T03:58:51.329Z,5.80
2019-01-17T04:01:21.273Z,5.27
2019-01-17T04:03:50.959Z,5.40
2019-01-17T04:06:20.573Z,5.30
2019-01-17T04:08:50.257Z,5.23
2019-01-17T04:11:19.861Z,4.43
2019-01-17T04:13:49.757Z,4.77
2019-01-17T04:16:19.369Z,5.40
2019-01-17T04:18:48.969Z,4.97
2019-01-17T04:21:19.455Z,5.20
2019-01-17T04:23:49.113Z,5.43
2019-01-17T04:26:18.728Z,5.20
2019-01-17T04:28:48.648Z,5.47
2019-01-17T04:31:18.340Z,5.10
2019-01-17T04:33:48.098Z,5.23
2019-01-17T04:36:18.058Z,5.00
2019-01-17T04:38:47.657Z,4.80
2019-01-17T04:41:17.276Z,5.00
2019-01-17T04:43:47.950Z,5.47
2019-01-17T04:46:17.556Z,5.17
2019-01-17T04:48:47.154Z,4.57
2019-01-17T04:51:17.063Z,4.73
2019-01-17T04:53:47.134Z,4.73
2019-01-17T04:56:17.104Z,4.40
2019-01-17T04:58:46.715Z,4.50
2019-01-17T05:01:16.700Z,4.53
2019-01-17T05:03:46.313Z,4.43
2019-01-17T05:06:15.920Z,4.53
2019-01-17T05:08:45.527Z,4.20
2019-01-17T05:11:15.225Z,4.40
2019-01-17T05:13:44.864Z,4.60
2019-01-17T05:16:14.482Z,4.57
2019-01-17T05:18:44.084Z,4.80
2019-01-17T05:21:13.680Z,5.17
2019-01-17T05:23:43.290Z,5.23
2019-01-17T05:26:13.212Z,4.63
2019-01-17T05:28:42.820Z,4.57
2019-01-17T05:31:12.426Z,5.27
2019-01-17T05:33:42.025Z,5.10
2019-01-17T05:36:11.778Z,5.40
2019-01-17T05:38:42.612Z,5.80
2019-01-17T05:41:12.468Z,5.10
2019-01-17T05:43:42.441Z,5.53
2019-01-17T05:46:13.019Z,5.33
2019-01-17T05:48:42.645Z,5.93
2019-01-17T05:51:12.594Z,6.00
2019-01-17T05:53:42.212Z,5.27
2019-01-17T05:56:11.820Z,5.80
2019-01-17T05:58:41.432Z,6.43
2019-01-17T06:01:11.041Z,6.37
2019-01-17T06:03:40.768Z,5.73
2019-01-17T06:06:10.454Z,5.50
2019-01-17T06:08:40.137Z,5.73
2019-01-17T06:11:09.890Z,6.23
2019-01-17T06:13:39.689Z,6.50
2019-01-17T06:16:09.493Z,6.47
2019-01-17T06:18:39.496Z,6.77
2019-01-17T06:21:09.113Z,6.30
2019-01-17T06:23:38.792Z,6.70
2019-01-17T06:26:08.812Z,7.10
2019-01-17T06:28:38.502Z,7.67
2019-01-17T06:31:08.485Z,7.67
2019-01-17T06:33:38.214Z,6.47
2019-01-17T06:36:07.921Z,6.37
2019-01-17T06:38:37.529Z,7.20
2019-01-17T06:41:07.337Z,6.97
2019-01-17T06:43:36.954Z,7.07
2019-01-17T06:46:06.900Z,6.60
2019-01-17T06:48:36.781Z,6.27
2019-01-17T06:51:06.475Z,6.93
2019-01-17T06:53:36.077Z,7.33
2019-01-17T06:56:06.301Z,6.80
2019-01-17T06:58:36.885Z,6.83
2019-01-17T07:01:06.648Z,7.17
2019-01-17T07:03:36.256Z,7.10
2019-01-17T07:06:05.877Z,7.10
2019-01-17T07:08:35.485Z,7.40
2019-01-17T07:11:05.485Z,6.30
2019-01-17T07:13:35.097Z,7.07
2019-01-17T07:16:04.900Z,6.97
2019-01-17T07:18:34.556Z,7.10
2019-01-17T07:21:04.358Z,7.23
2019-01-17T07:23:33.952Z,7.90
2019-01-17T07:26:03.944Z,7.47
2019-01-17T07:28:33.608Z,7.53
2019-01-17T07:31:03.238Z,7.97
2019-01-17T07:33:32.849Z,7.10
2019-01-17T07:36:02.722Z,7.57
2019-01-17T07:38:32.367Z,8.53
2019-01-17T07:41:01.997Z,7.80
2019-01-17T07:43:31.608Z,8.63
2019-01-17T07:46:01.242Z,7.63
2019-01-17T07:48:30.960Z,7.83
2019-01-17T07:51:01.045Z,7.43
2019-01-17T07:53:30.797Z,8.10
2019-01-17T07:56:00.760Z,7.90
2019-01-17T07:58:30.538Z,8.27
2019-01-17T08:01:00.150Z,8.27
2019-01-17T08:03:30.073Z,8.63
2019-01-17T08:05:59.964Z,7.90
2019-01-17T08:08:29.581Z,7.97
2019-01-17T08:10:59.581Z,8.57
2019-01-17T08:13:29.270Z,8.07
2019-01-17T08:15:59.046Z,8.00
2019-01-17T08:18:28.672Z,8.60
2019-01-17T08:20:58.326Z,8.60
2019-01-17T08:23:34.314Z,8.27
2019-01-17T08:25:59.510Z,9.13
2019-01-17T08:28:29.228Z,8.43
2019-01-17T08:30:58.912Z,7.73
2019-01-17T08:33:28.623Z,8.47
2019-01-17T08:35:58.388Z,8.17
2019-01-17T08:38:28.000Z,8.07
2019-01-17T08:40:57.874Z,8.03
2019-01-17T08:43:27.490Z,7.93
2019-01-17T08:45:57.174Z,7.97
2019-01-17T08:48:26.817Z,7.60
2019-01-17T08:50:56.438Z,7.90
2019-01-17T08:53:26.140Z,8.10
2019-01-17T08:56:00.741Z,8.27
2019-01-17T08:58:27.077Z,7.07
2019-01-17T09:00:56.698Z,7.77
2019-01-17T09:03:26.518Z,7.70
2019-01-17T09:05:56.166Z,8.80
2019-01-17T09:08:25.968Z,8.10
2019-01-17T09:10:55.579Z,7.77
2019-01-17T09:13:25.344Z,8.07
2019-01-17T09:15:54.944Z,8.13
2019-01-17T09:18:24.594Z,7.93
2019-01-17T09:20:54.269Z,7.80
2019-01-17T09:23:23.897Z,8.30
2019-01-17T09:25:53.797Z,7.83
2019-01-17T09:28:23.411Z,8.13
2019-01-17T09:30:53.017Z,7.53
2019-01-17T09:33:22.774Z,7.93
2019-01-17T09:35:52.389Z,7.90
2019-01-17T09:38:22.009Z,8.33
2019-01-17T09:40:51.986Z,8.20
2019-01-17T09:43:21.607Z,8.17
2019-01-17T09:45:51.232Z,8.77
2019-01-17T09:48:20.916Z,9.10
2019-01-17T09:50:50.605Z,8.50
2019-01-17T09:53:20.758Z,8.50
2019-01-17T09:55:50.652Z,8.37
2019-01-17T09:58:20.594Z,9.30
2019-01-17T10:00:50.214Z,7.73
2019-01-17T10:03:19.917Z,9.37
2019-01-17T10:05:49.645Z,9.47
2019-01-17T10:08:19.301Z,9.40
2019-01-17T10:10:48.913Z,8.77
2019-01-17T10:13:18.830Z,8.27
2019-01-17T10:16:16.735Z,8.20
2019-01-17T10:19:24.005Z,8.13
2019-01-17T10:22:43.373Z,8.43
2019-01-17T10:26:02.420Z,7.93
2019-01-17T10:29:41.221Z,7.60
2019-01-17T10:32:32.193Z,6.77
2019-01-17T10:35:27.817Z,7.70
2019-01-17T10:38:31.209Z,7.53
2019-01-17T10:41:24.592Z,7.33
2019-01-17T10:44:05.871Z,7.33
2019-01-17T10:47:04.457Z,7.75
2019-01-17T10:50:09.043Z,11.60
2019-01-17T10:53:29.011Z,7.10
2019-01-17T10:56:55.701Z,16.17
2019-01-17T10:59:49.974Z,6.97
2019-01-17T11:02:56.365Z,7.10
2019-01-17T11:05:56.088Z,8.10
2019-01-17T11:09:01.633Z,6.90
2019-01-17T11:12:16.504Z,7.00
2019-01-17T11:15:17.463Z,6.47
2019-01-17T11:18:14.279Z,6.77
2019-01-17T11:21:26.417Z,6.97
2019-01-17T11:24:06.610Z,6.03
2019-01-17T11:27:10.672Z,5.87
2019-01-17T11:30:21.892Z,5.23
2019-01-17T11:33:24.477Z,5.57
2019-01-17T11:36:39.028Z,4.90
2019-01-17T11:39:38.119Z,5.63
2019-01-17T11:42:32.426Z,6.77
2019-01-17T11:45:56.386Z,4.77
2019-01-17T11:48:45.997Z,4.33
2019-01-17T11:51:53.778Z,4.67
2019-01-17T11:54:43.155Z,4.77
2019-01-17T11:57:29.950Z,5.00
2019-01-17T12:00:29.197Z,5.13
2019-01-17T12:03:12.010Z,5.10
2019-01-17T12:05:41.686Z,5.17
2019-01-17T12:08:11.414Z,5.80
2019-01-17T12:10:41.033Z,5.70
2019-01-17T12:13:10.641Z,5.53
2019-01-17T12:15:40.266Z,5.17
2019-01-17T12:18:09.957Z,6.07
2019-01-17T12:20:39.889Z,5.77
2019-01-17T12:23:09.568Z,5.67
2019-01-17T12:25:39.180Z,7.10
2019-01-17T12:28:08.812Z,5.83
2019-01-17T12:30:38.434Z,6.13
2019-01-17T12:33:08.037Z,5.10
2019-01-17T12:35:37.926Z,4.57
2019-01-17T12:38:07.599Z,5.73
2019-01-17T12:40:37.528Z,4.80
2019-01-17T12:43:07.141Z,4.90
2019-01-17T12:45:36.831Z,4.07
2019-01-17T12:48:06.944Z,4.90
2019-01-17T12:50:36.565Z,4.97
2019-01-17T12:53:06.207Z,5.53
2019-01-17T12:55:35.866Z,5.27
2019-01-17T12:58:05.498Z,5.67
2019-01-17T13:00:35.117Z,6.00
2019-01-17T13:03:04.733Z,5.00
2019-01-17T13:05:34.345Z,6.03
2019-01-17T13:08:04.405Z,5.57
2019-01-17T13:10:34.386Z,5.57
2019-01-17T13:13:04.004Z,6.43
2019-01-17T13:15:33.893Z,6.40
2019-01-17T13:18:03.584Z,6.57
2019-01-17T13:20:33.277Z,7.63
2019-01-17T13:23:02.897Z,5.67
2019-01-17T13:25:32.662Z,5.80
2019-01-17T13:28:02.452Z,4.40
2019-01-17T13:30:32.446Z,6.93
2019-01-17T13:33:02.134Z,3.80
2019-01-17T13:35:31.805Z,3.60
2019-01-17T13:38:01.423Z,3.60
2019-01-17T13:40:31.110Z,3.37
2019-01-17T13:43:00.744Z,2.10
2019-01-17T13:45:30.683Z,1.90
2019-01-17T13:48:00.429Z,1.80
2019-01-17T13:50:30.109Z,1.43
2019-01-17T13:52:59.741Z,1.70
2019-01-17T13:55:29.582Z,1.83
2019-01-17T13:57:59.189Z,1.67
2019-01-17T14:00:29.148Z,1.40
2019-01-17T14:02:58.756Z,1.30
2019-01-17T14:05:29.335Z,1.53
2019-01-17T14:08:00.094Z,1.93
2019-01-17T14:10:29.730Z,1.30
2019-01-17T14:12:59.414Z,1.70
2019-01-17T14:15:30.305Z,1.50
2019-01-17T14:17:59.955Z,2.40
2019-01-17T14:20:29.555Z,1.70
2019-01-17T14:22:59.174Z,1.77
2019-01-17T14:25:29.106Z,2.27
2019-01-17T14:27:58.800Z,1.67
2019-01-17T14:30:30.830Z,2.00
2019-01-17T14:33:00.564Z,1.53
2019-01-17T14:35:30.188Z,2.47
2019-01-17T14:37:59.789Z,2.00
2019-01-17T14:40:29.468Z,2.00
2019-01-17T14:42:59.077Z,1.70
2019-01-17T14:45:29.083Z,1.70
2019-01-17T14:47:58.689Z,1.90
2019-01-17T14:50:30.396Z,2.10
2019-01-17T14:53:00.265Z,2.00
2019-01-17T14:55:29.903Z,1.70
2019-01-17T14:57:59.512Z,1.83
2019-01-17T15:00:31.305Z,1.83
2019-01-17T15:03:01.118Z,1.80
2019-01-17T15:05:30.800Z,1.77
2019-01-17T15:08:00.506Z,2.30
2019-01-17T15:10:36.089Z,1.30
2019-01-17T15:13:05.881Z,2.00
2019-01-17T15:15:35.750Z,1.73
2019-01-17T15:18:06.616Z,1.97
2019-01-17T15:20:36.723Z,2.20
2019-01-17T15:23:08.215Z,1.67
2019-01-17T15:25:37.980Z,1.50
2019-01-17T15:28:07.605Z,1.77
2019-01-17T15:30:37.289Z,1.80
2019-01-17T15:33:07.241Z,1.77
2019-01-17T15:35:37.184Z,2.10
2019-01-17T15:38:06.789Z,1.60
2019-01-17T15:40:36.437Z,1.70
2019-01-17T15:43:07.889Z,1.70
2019-01-17T15:45:37.957Z,1.60
2019-01-17T15:48:07.780Z,1.30
2019-01-17T15:50:37.397Z,1.80
2019-01-17T15:53:07.006Z,1.83
2019-01-17T15:55:36.854Z,2.20
2019-01-17T15:58:06.533Z,2.40
2019-01-17T16:00:36.288Z,2.60
2019-01-17T16:03:05.893Z,2.97
2019-01-17T16:05:35.789Z,1.87
2019-01-17T16:08:05.565Z,1.50
2019-01-17T16:10:35.176Z,2.03
2019-01-17T16:13:04.818Z,1.50
2019-01-17T16:15:34.716Z,2.60
2019-01-17T16:18:04.472Z,1.63
2019-01-17T16:20:34.229Z,2.03
2019-01-17T16:23:04.389Z,2.47
2019-01-17T16:25:33.996Z,1.70
2019-01-17T16:28:03.623Z,1.60
2019-01-17T16:30:33.800Z,1.40
2019-01-17T16:33:03.499Z,1.20
2019-01-17T16:35:33.433Z,1.70
2019-01-17T16:38:03.056Z,1.97
2019-01-17T16:40:32.665Z,3.83
2019-01-17T16:43:02.586Z,1.90
2019-01-17T16:45:35.642Z,1.80
2019-01-17T16:48:03.500Z,2.10
2019-01-17T16:50:33.101Z,1.47
2019-01-17T16:53:02.726Z,2.23
2019-01-17T16:55:32.643Z,3.63
2019-01-17T16:58:02.376Z,1.63
2019-01-17T17:00:40.118Z,2.40
2019-01-17T17:03:09.881Z,2.13
2019-01-17T17:05:39.490Z,1.70
2019-01-17T17:08:09.171Z,3.67
2019-01-17T17:10:38.776Z,1.87
2019-01-17T17:13:08.423Z,3.13
2019-01-17T17:15:38.114Z,2.77
2019-01-17T17:18:07.806Z,3.30
2019-01-17T17:20:37.830Z,3.50
2019-01-17T17:23:07.453Z,3.80
2019-01-17T17:25:37.134Z,1.80
2019-01-17T17:28:06.773Z,1.80
2019-01-17T17:30:37.084Z,1.50
2019-01-17T17:33:06.773Z,2.43
2019-01-17T17:35:37.024Z,1.93
2019-01-17T17:38:07.463Z,1.83
2019-01-17T17:40:37.449Z,2.13
2019-01-17T17:43:07.553Z,2.47
2019-01-17T17:45:37.744Z,1.83
2019-01-17T17:48:07.428Z,4.00
2019-01-17T17:50:37.057Z,3.03
2019-01-17T17:53:06.724Z,2.10
2019-01-17T17:55:36.332Z,2.77
2019-01-17T17:58:06.295Z,3.10
2019-01-17T18:00:52.705Z,1.73
2019-01-17T18:03:22.317Z,2.20
2019-01-17T18:05:51.932Z,2.10
2019-01-17T18:08:21.576Z,1.80
2019-01-17T18:10:51.537Z,2.60
2019-01-17T18:13:21.146Z,3.43
2019-01-17T18:15:50.748Z,3.70
2019-01-17T18:18:20.545Z,4.50
2019-01-17T18:20:50.152Z,2.90
2019-01-17T18:23:19.760Z,3.20
2019-01-17T18:25:49.377Z,5.03
2019-01-17T18:28:19.000Z,5.90
2019-01-17T18:30:48.617Z,4.77
2019-01-17T18:33:18.316Z,4.73
2019-01-17T18:35:47.945Z,4.37
2019-01-17T18:38:17.566Z,3.37
2019-01-17T18:40:47.261Z,3.67
2019-01-17T18:43:16.872Z,3.90
2019-01-17T18:45:46.569Z,4.00
2019-01-17T18:48:16.167Z,2.90
2019-01-17T18:50:45.929Z,2.80
2019-01-17T18:53:15.855Z,4.17
2019-01-17T18:55:45.750Z,3.33
2019-01-17T18:58:15.786Z,2.80
2019-01-17T19:00:45.601Z,3.70
2019-01-17T19:03:15.285Z,5.57
2019-01-17T19:05:44.896Z,5.80
2019-01-17T19:08:14.750Z,6.67
2019-01-17T19:10:44.716Z,5.40
2019-01-17T19:13:15.864Z,5.00
2019-01-17T19:15:45.557Z,7.47
2019-01-17T19:18:15.170Z,8.90
2019-01-17T19:20:44.941Z,3.77
2019-01-17T19:23:14.929Z,4.10
2019-01-17T19:25:44.780Z,9.73
2019-01-17T19:28:14.493Z,10.67
2019-01-17T19:30:44.173Z,7.67
2019-01-17T19:33:13.842Z,9.00
2019-01-17T19:35:43.452Z,5.37
2019-01-17T19:38:14.117Z,4.03
2019-01-17T19:40:43.732Z,3.77
2019-01-17T19:43:13.429Z,3.87
2019-01-17T19:45:43.233Z,2.70
2019-01-17T19:48:12.848Z,3.40
2019-01-17T19:50:42.756Z,2.57
2019-01-17T19:53:12.584Z,2.80
2019-01-17T19:55:42.441Z,2.67
2019-01-17T19:58:12.131Z,1.70
2019-01-17T20:00:41.844Z,1.90
2019-01-17T20:03:11.883Z,1.83
2019-01-17T20:05:41.641Z,1.77
2019-01-17T20:08:11.329Z,2.20
2019-01-17T20:10:40.944Z,2.27
2019-01-17T20:13:10.684Z,1.80
2019-01-17T20:15:40.610Z,2.10
2019-01-17T20:18:10.760Z,2.57
2019-01-17T20:20:40.442Z,3.47
2019-01-17T20:23:10.249Z,2.87
2019-01-17T20:25:40.107Z,3.60
2019-01-17T20:28:09.878Z,4.03
2019-01-17T20:30:39.853Z,3.80
2019-01-17T20:33:09.706Z,4.63
2019-01-17T20:35:39.308Z,4.30
2019-01-17T20:38:10.254Z,2.20
2019-01-17T20:40:40.352Z,2.53
2019-01-17T20:43:10.209Z,1.90
2019-01-17T20:45:39.817Z,1.80
2019-01-17T20:48:10.556Z,1.83
2019-01-17T20:50:40.231Z,1.50
2019-01-17T20:53:09.844Z,1.63
2019-01-17T20:55:39.457Z,1.80
2019-01-17T20:58:09.067Z,1.57
2019-01-17T21:01:04.053Z,1.67
2019-01-17T21:03:35.251Z,1.70
2019-01-17T21:06:05.427Z,1.90
2019-01-17T21:08:35.043Z,2.00
2019-01-17T21:11:04.992Z,1.70
2019-01-17T21:13:34.614Z,1.77
2019-01-17T21:16:04.365Z,2.00
2019-01-17T21:18:33.989Z,1.83
2019-01-17T21:21:03.849Z,2.20
2019-01-17T21:23:33.477Z,1.90
2019-01-17T21:26:03.146Z,2.27
2019-01-17T21:28:32.845Z,2.80
2019-01-17T21:31:02.448Z,4.00
2019-01-17T21:33:32.141Z,3.30
2019-01-17T21:36:01.744Z,2.80
2019-01-17T21:38:31.369Z,3.20
2019-01-17T21:41:01.286Z,2.83
2019-01-17T21:43:30.897Z,2.67
2019-01-17T21:46:00.504Z,2.40
2019-01-17T21:48:30.118Z,2.07
2019-01-17T21:50:59.731Z,2.03
2019-01-17T21:53:29.516Z,2.73
2019-01-17T21:56:00.180Z,3.00
2019-01-17T21:58:30.101Z,3.37
2019-01-17T22:00:59.700Z,2.90
2019-01-17T22:03:29.794Z,2.50
2019-01-17T22:05:59.454Z,2.40
2019-01-17T22:08:29.061Z,3.40
2019-01-17T22:10:58.669Z,2.90
2019-01-17T22:13:28.382Z,2.53
2019-01-17T22:15:58.033Z,3.07
2019-01-17T22:18:27.768Z,3.53
2019-01-17T22:20:57.444Z,3.50
2019-01-17T22:23:27.111Z,3.33
2019-01-17T22:25:57.432Z,4.47
2019-01-17T22:28:27.133Z,3.80
2019-01-17T22:30:56.737Z,5.03
2019-01-17T22:33:26.347Z,4.53
2019-01-17T22:35:55.966Z,4.17
2019-01-17T22:38:25.577Z,4.63
2019-01-17T22:40:55.570Z,3.87
2019-01-17T22:43:26.493Z,3.60
2019-01-17T22:45:56.726Z,3.37
2019-01-17T22:48:26.382Z,3.00
2019-01-17T22:50:55.997Z,3.23
2019-01-17T22:53:26.575Z,3.40
2019-01-17T22:55:56.197Z,3.10
2019-01-17T22:58:25.813Z,3.20
2019-01-17T23:01:21.653Z,3.73
2019-01-17T23:03:52.251Z,3.57
2019-01-17T23:06:22.188Z,3.80
2019-01-17T23:08:51.793Z,3.10
2019-01-17T23:11:21.493Z,3.07
2019-01-17T23:13:51.246Z,3.43
2019-01-17T23:16:20.853Z,3.00
2019-01-17T23:18:50.920Z,3.60
2019-01-17T23:21:21.634Z,3.73
2019-01-17T23:23:51.411Z,3.43
2019-01-17T23:26:21.104Z,3.50
2019-01-17T23:28:50.737Z,3.03
2019-01-17T23:31:20.442Z,2.80
2019-01-17T23:33:50.137Z,2.97
2019-01-17T23:36:19.847Z,2.87
2019-01-17T23:38:49.656Z,3.07
2019-01-17T23:41:19.280Z,3.23
2019-01-17T23:43:48.885Z,2.47
2019-01-17T23:46:18.501Z,2.67
2019-01-17T23:48:48.409Z,2.63
2019-01-17T23:51:18.016Z,2.80
2019-01-17T23:53:47.696Z,3.07
2019-01-17T23:56:17.309Z,2.73
2019-01-17T23:58:47.036Z,2.90
